Time;durP1;ratioP1;P1;durP2;ratioP2;P2;SDS_P1;SDS_P2;PMS_P1;PMS_P2;Temp;Humidity;BMP_temperature;BMP_pressure;BME280_temperature;BME280_humidity;BME280_pressure;Samples;Min_cycle;Max_cycle;Signal;HPM_P1;HPM_P2
2022/03/16 00:00:10;;;;;;;33.13;10.20;;;6.70;99.90;;;;;;5091271;28;20051;-56
2022/03/16 00:02:42;;;;;;;23.65;9.88;;;6.70;99.90;;;;;;5090009;28;20040;-52
2022/03/16 00:05:09;;;;;;;32.25;10.43;;;6.80;99.90;;;;;;5090136;28;20070;-55
2022/03/16 00:07:37;;;;;;;29.77;10.10;;;6.70;99.90;;;;;;5091400;28;20552;-53
2022/03/16 00:10:05;;;;;;;29.63;10.32;;;6.70;99.90;;;;;;5089133;28;20032;-55
2022/03/16 00:12:31;;;;;;;31.13;10.98;;;6.70;99.90;;;;;;5088411;28;20436;-54
2022/03/16 00:14:58;;;;;;;32.75;11.70;;;6.80;99.90;;;;;;5087068;28;20044;-52
2022/03/16 00:17:25;;;;;;;32.88;12.27;;;6.80;99.90;;;;;;5091031;28;20484;-52
2022/03/16 00:19:52;;;;;;;33.80;14.40;;;6.80;99.90;;;;;;5090961;28;20036;-52
2022/03/16 00:22:19;;;;;;;44.47;13.60;;;6.80;99.90;;;;;;5088780;28;20037;-52
2022/03/16 00:24:46;;;;;;;34.22;13.43;;;6.80;99.90;;;;;;5066158;28;20062;-52
2022/03/16 00:27:13;;;;;;;32.70;12.82;;;6.80;99.90;;;;;;5091541;28;20048;-55
2022/03/16 00:29:40;;;;;;;37.13;12.77;;;6.80;99.90;;;;;;5090716;28;20044;-55
2022/03/16 00:32:07;;;;;;;37.90;12.63;;;6.80;99.90;;;;;;5067359;28;20790;-54
2022/03/16 00:34:34;;;;;;;45.72;13.13;;;6.70;99.90;;;;;;5088924;28;20274;-55
2022/03/16 00:37:01;;;;;;;36.75;12.75;;;6.80;99.90;;;;;;5091030;28;20040;-52
2022/03/16 00:39:28;;;;;;;27.33;10.38;;;6.80;99.90;;;;;;5072141;28;20040;-54
2022/03/16 00:41:56;;;;;;;39.55;13.50;;;6.80;99.90;;;;;;5085451;28;20040;-52
2022/03/16 00:44:23;;;;;;;42.22;12.68;;;6.80;99.90;;;;;;5083115;28;20036;-52
2022/03/16 00:46:50;;;;;;;37.28;11.38;;;6.80;99.90;;;;;;5083454;28;20040;-55
2022/03/16 00:49:17;;;;;;;35.78;12.32;;;6.80;99.90;;;;;;5085015;28;20489;-56
2022/03/16 00:51:44;;;;;;;39.33;14.70;;;6.70;99.90;;;;;;5086604;28;20036;-51
2022/03/16 00:54:11;;;;;;;32.45;13.05;;;6.80;99.90;;;;;;5086531;28;20275;-56
2022/03/16 00:56:39;;;;;;;34.92;13.57;;;6.80;99.90;;;;;;5086612;28;20131;-55
2022/03/16 00:59:06;;;;;;;31.23;12.60;;;6.80;99.90;;;;;;5067410;28;20082;-55
2022/03/16 01:01:33;;;;;;;41.05;13.07;;;6.80;99.90;;;;;;5068427;28;20047;-55
2022/03/16 01:04:00;;;;;;;46.03;13.73;;;6.80;99.90;;;;;;5084596;28;20040;-53
2022/03/16 01:06:27;;;;;;;37.47;13.27;;;6.90;99.90;;;;;;5077679;28;20119;-54
2022/03/16 01:08:54;;;;;;;38.67;13.45;;;6.90;99.90;;;;;;5089286;28;20040;-52
2022/03/16 01:11:21;;;;;;;;;;;6.90;99.90;;;;;;5067598;28;20067;-53
2022/03/16 01:13:49;;;;;;;34.90;12.85;;;6.90;99.90;;;;;;5091806;28;20015;-52
2022/03/16 01:16:16;;;;;;;41.47;12.90;;;6.80;99.90;;;;;;5091828;28;20105;-51
2022/03/16 01:18:43;;;;;;;28.02;11.98;;;6.80;99.90;;;;;;5090941;28;20048;-56
2022/03/16 01:21:11;;;;;;;35.83;12.57;;;6.80;99.90;;;;;;5073429;28;20420;-53
2022/03/16 01:23:39;;;;;;;36.83;13.07;;;6.80;99.90;;;;;;5073563;28;20039;-55
2022/03/16 01:26:06;;;;;;;32.17;11.82;;;6.80;99.90;;;;;;5091057;28;20036;-57
2022/03/16 01:28:33;;;;;;;36.88;13.20;;;6.80;99.90;;;;;;5058077;28;20086;-53
2022/03/16 01:31:01;;;;;;;29.10;12.65;;;6.80;99.90;;;;;;5089936;28;20052;-52
2022/03/16 01:33:31;;;;;;;30.58;12.05;;;6.80;99.90;;;;;;5091523;28;20438;-54
2022/03/16 01:35:57;;;;;;;28.55;11.85;;;6.80;99.90;;;;;;5090962;28;20563;-53
2022/03/16 01:38:24;;;;;;;31.80;12.75;;;6.70;99.90;;;;;;5082882;28;20092;-53
2022/03/16 01:40:52;;;;;;;37.13;12.30;;;6.80;99.90;;;;;;5091192;28;20484;-53
2022/03/16 01:43:19;;;;;;;;;;;6.80;99.90;;;;;;5075698;28;20411;-56
2022/03/16 01:45:50;;;;;;;32.50;12.13;;;6.80;99.90;;;;;;5094938;28;19927;-54
2022/03/16 01:48:18;;;;;;;32.60;12.25;;;6.80;99.90;;;;;;5087987;28;20090;-54
2022/03/16 01:50:49;;;;;;;30.33;12.13;;;6.80;99.90;;;;;;5095164;28;20044;-52
2022/03/16 01:53:16;;;;;;;34.30;11.68;;;6.80;99.90;;;;;;5093151;28;20083;-54
2022/03/16 01:55:44;;;;;;;29.67;12.18;;;6.70;99.90;;;;;;5060600;28;20136;-52
2022/03/16 01:58:11;;;;;;;29.27;11.82;;;6.80;99.90;;;;;;5085794;28;20032;-55
2022/03/16 02:00:39;;;;;;;;;;;6.80;99.90;;;;;;5068686;28;20048;-54
2022/03/16 02:03:09;;;;;;;27.00;9.85;;;6.80;99.90;;;;;;5076487;28;19931;-53
2022/03/16 02:05:37;;;;;;;31.48;11.40;;;6.70;99.90;;;;;;5068799;28;20146;-53
2022/03/16 02:08:05;;;;;;;28.20;11.55;;;6.70;99.90;;;;;;5095150;28;20052;-55
2022/03/16 02:10:32;;;;;;;30.30;10.95;;;6.70;99.90;;;;;;5086389;28;20066;-53
2022/03/16 02:12:59;;;;;;;21.73;11.30;;;6.70;99.90;;;;;;5094584;28;20077;-56
2022/03/16 02:15:27;;;;;;;;;;;6.70;99.90;;;;;;5086921;28;20040;-56
2022/03/16 02:17:55;;;;;;;24.40;11.25;;;6.80;99.90;;;;;;5095044;28;20384;-56
2022/03/16 02:20:22;;;;;;;108.00;16.73;;;6.80;99.90;;;;;;5094742;28;20047;-55
2022/03/16 02:23:06;;;;;;;29.85;11.77;;;6.70;99.90;;;;;;5093390;28;20043;-56
2022/03/16 02:25:47;;;;;;;36.47;12.18;;;6.60;99.90;;;;;;5089968;28;20131;-54
2022/03/16 02:28:14;;;;;;;25.10;12.05;;;6.60;99.90;;;;;;5094768;28;20402;-54
2022/03/16 02:30:42;;;;;;;38.72;11.90;;;6.60;99.90;;;;;;5093969;28;20040;-55
2022/03/16 02:33:09;;;;;;;40.33;12.98;;;6.60;99.90;;;;;;5086218;28;20043;-55
2022/03/16 02:35:36;;;;;;;28.17;11.85;;;6.60;99.90;;;;;;5094615;28;20036;-56
2022/03/16 02:38:03;;;;;;;36.05;12.93;;;6.70;99.90;;;;;;5093956;28;20044;-55
2022/03/16 02:40:30;;;;;;;30.95;12.25;;;6.70;99.90;;;;;;5087222;28;20476;-54
2022/03/16 02:42:58;;;;;;;30.88;11.68;;;6.70;99.90;;;;;;5092933;28;20500;-55
2022/03/16 02:45:25;;;;;;;27.52;12.40;;;6.60;99.90;;;;;;5094757;28;20132;-56
2022/03/16 02:47:52;;;;;;;35.42;12.60;;;6.60;99.90;;;;;;5092754;28;20493;-55
2022/03/16 02:50:19;;;;;;;28.60;11.43;;;6.60;99.90;;;;;;5086985;28;20072;-54
2022/03/16 02:52:47;;;;;;;25.98;11.30;;;6.60;99.90;;;;;;5094322;28;20036;-56
2022/03/16 02:55:34;;;;;;;30.87;12.00;;;6.70;99.90;;;;;;5093951;28;20541;-53
2022/03/16 02:58:01;;;;;;;34.05;13.07;;;6.70;99.90;;;;;;5085430;28;20048;-55
2022/03/16 03:00:28;;;;;;;33.13;12.05;;;6.70;99.90;;;;;;5094055;28;20128;-52
2022/03/16 03:02:55;;;;;;;29.95;12.43;;;6.70;99.90;;;;;;5094231;28;20048;-56
2022/03/16 03:05:22;;;;;;;26.55;12.75;;;6.70;99.90;;;;;;5088276;28;20400;-53
2022/03/16 03:07:49;;;;;;;20.67;9.30;;;6.70;99.90;;;;;;5091307;28;20044;-56
2022/03/16 03:10:16;;;;;;;28.95;11.52;;;6.60;99.90;;;;;;5093869;28;20078;-56
2022/03/16 03:12:43;;;;;;;32.72;12.65;;;6.60;99.90;;;;;;5093730;28;20036;-56
2022/03/16 03:15:12;;;;;;;27.85;11.60;;;6.60;99.90;;;;;;5089981;28;20489;-54
2022/03/16 03:17:41;;;;;;;31.27;12.35;;;6.60;99.90;;;;;;5089856;28;20488;-56
2022/03/16 03:20:09;;;;;;;28.73;12.10;;;6.50;99.90;;;;;;5093429;28;20128;-52
2022/03/16 03:22:36;;;;;;;36.67;12.32;;;6.50;99.90;;;;;;5093483;28;20119;-57
2022/03/16 03:25:04;;;;;;;35.08;12.05;;;6.50;99.90;;;;;;5085310;28;20105;-53
2022/03/16 03:27:32;;;;;;;23.67;12.07;;;6.60;99.90;;;;;;5093681;28;20141;-55
2022/03/16 03:29:59;;;;;;;34.55;12.13;;;6.60;99.90;;;;;;5092735;28;20036;-52
2022/03/16 03:32:26;;;;;;;30.85;13.68;;;6.50;99.90;;;;;;5084999;28;20040;-52
2022/03/16 03:34:55;;;;;;;27.17;12.52;;;6.50;99.90;;;;;;5093652;28;20048;-52
2022/03/16 03:37:25;;;;;;;27.88;12.85;;;6.40;99.90;;;;;;5093690;28;20700;-54
2022/03/16 03:39:52;;;;;;;35.20;14.10;;;6.40;99.90;;;;;;5091338;28;20059;-53
2022/03/16 03:42:19;;;;;;;35.65;14.35;;;6.40;99.90;;;;;;5068922;28;20040;-52
2022/03/16 03:44:47;;;;;;;;;;;6.40;99.90;;;;;;5093977;28;20492;-54
2022/03/16 03:47:14;;;;;;;38.80;13.75;;;6.50;99.90;;;;;;5093580;28;20402;-56
2022/03/16 03:49:42;;;;;;;37.63;12.50;;;6.40;99.90;;;;;;5084344;28;20551;-55
2022/03/16 03:52:10;;;;;;;27.35;13.25;;;6.50;99.90;;;;;;5093329;28;20123;-55
2022/03/16 03:54:37;;;;;;;34.75;14.02;;;6.40;99.90;;;;;;5093353;28;20036;-55
2022/03/16 03:57:04;;;;;;;35.88;12.90;;;6.40;99.90;;;;;;5092530;28;20036;-55
2022/03/16 03:59:31;;;;;;;40.45;14.55;;;6.40;99.90;;;;;;5084174;28;20500;-52
2022/03/16 04:01:58;;;;;;;39.08;14.77;;;6.40;99.90;;;;;;5093201;28;20040;-53
2022/03/16 04:04:25;;;;;;;35.38;13.88;;;6.40;99.90;;;;;;5092981;28;20079;-53
2022/03/16 04:06:53;;;;;;;38.88;15.32;;;6.40;99.90;;;;;;5090642;28;20048;-55
2022/03/16 04:09:20;;;;;;;37.13;14.23;;;6.40;99.90;;;;;;5085581;28;20044;-52
2022/03/16 04:11:47;;;;;;;31.25;13.32;;;6.40;99.90;;;;;;5092930;28;20044;-52
2022/03/16 04:14:15;;;;;;;26.55;14.27;;;6.40;99.90;;;;;;5092267;28;20032;-53
2022/03/16 04:16:43;;;;;;;32.65;14.32;;;6.40;99.90;;;;;;5084193;28;20119;-53
2022/03/16 04:19:10;;;;;;;;;;;6.50;99.90;;;;;;5092786;28;20509;-54
2022/03/16 04:21:37;;;;;;;33.00;14.35;;;6.40;99.90;;;;;;5092714;28;19924;-57
2022/03/16 04:24:04;;;;;;;31.77;13.63;;;6.50;99.90;;;;;;5089367;28;20122;-53
2022/03/16 04:26:31;;;;;;;38.17;15.15;;;6.50;99.90;;;;;;5087000;28;20123;-53
2022/03/16 04:28:58;;;;;;;32.30;14.80;;;6.40;99.90;;;;;;5092161;28;20044;-53
2022/03/16 04:31:25;;;;;;;37.03;15.48;;;6.50;99.90;;;;;;5090714;28;20093;-53
2022/03/16 04:33:52;;;;;;;31.33;14.93;;;6.50;99.90;;;;;;5080651;28;20056;-56
2022/03/16 04:36:19;;;;;;;39.45;14.52;;;6.60;99.90;;;;;;5081600;28;20122;-53
2022/03/16 04:38:46;;;;;;;38.30;16.13;;;6.60;99.90;;;;;;5082613;28;20401;-55
2022/03/16 04:41:13;;;;;;;249.13;25.40;;;6.60;99.90;;;;;;5079603;28;20555;-57
2022/03/16 04:43:40;;;;;;;34.03;13.93;;;6.60;99.90;;;;;;5088636;28;20048;-56
2022/03/16 04:46:06;;;;;;;28.70;13.57;;;6.50;99.90;;;;;;5082839;28;20499;-55
2022/03/16 04:48:33;;;;;;;275.33;33.22;;;6.40;99.90;;;;;;5081207;28;20052;-56
2022/03/16 04:51:01;;;;;;;39.67;15.02;;;6.40;99.90;;;;;;5115189;22;20071;-59
2022/03/16 04:53:28;;;;;;;31.55;14.98;;;6.40;99.90;;;;;;5104953;28;20036;-59
2022/03/16 04:55:54;;;;;;;31.98;14.68;;;6.40;99.90;;;;;;5106031;27;20028;-59
2022/03/16 04:58:21;;;;;;;31.40;16.00;;;6.40;99.90;;;;;;5110961;27;20036;-59
2022/03/16 05:00:48;;;;;;;30.40;14.07;;;6.40;99.90;;;;;;5110974;27;20031;-59
2022/03/16 05:03:15;;;;;;;28.05;14.38;;;6.40;99.90;;;;;;5104757;28;20036;-59
2022/03/16 05:05:42;;;;;;;35.58;15.45;;;6.40;99.90;;;;;;5109036;28;20047;-59
2022/03/16 05:08:09;;;;;;;34.50;15.57;;;6.40;99.90;;;;;;5102591;28;20040;-59
2022/03/16 05:10:36;;;;;;;32.70;15.48;;;6.40;99.90;;;;;;5099128;28;20078;-59
2022/03/16 05:13:03;;;;;;;39.08;16.85;;;6.30;99.90;;;;;;5111274;28;20104;-59
2022/03/16 05:15:30;;;;;;;48.30;16.95;;;6.40;99.90;;;;;;5111499;27;20044;-59
2022/03/16 05:17:57;;;;;;;41.55;18.23;;;6.40;99.90;;;;;;5094773;27;20044;-59
2022/03/16 05:20:24;;;;;;;37.85;16.38;;;6.40;99.90;;;;;;5097715;28;20511;-59
2022/03/16 05:22:53;;;;;;;38.70;16.00;;;6.40;99.90;;;;;;5107736;28;20047;-59
2022/03/16 05:25:22;;;;;;;29.40;15.55;;;6.40;99.90;;;;;;5112793;28;20096;-59
2022/03/16 05:27:50;;;;;;;34.83;16.30;;;6.40;99.90;;;;;;5095333;28;20050;-59
2022/03/16 05:30:17;;;;;;;;;;;6.40;99.90;;;;;;5112269;28;20044;-59
2022/03/16 05:32:43;;;;;;;35.28;16.05;;;6.40;99.90;;;;;;5110688;27;19949;-59
2022/03/16 05:35:13;;;;;;;43.25;16.27;;;6.50;99.90;;;;;;5106046;28;20055;-59
2022/03/16 05:37:40;;;;;;;33.80;15.95;;;6.50;99.90;;;;;;5090792;28;20056;-59
2022/03/16 05:40:08;;;;;;;42.33;16.70;;;6.50;99.90;;;;;;5090767;28;20040;-59
2022/03/16 05:42:35;;;;;;;38.75;17.92;;;6.50;99.90;;;;;;5093286;28;20465;-59
2022/03/16 05:45:04;;;;;;;44.17;17.13;;;6.50;99.90;;;;;;5091435;28;20047;-59
2022/03/16 05:47:31;;;;;;;37.08;17.02;;;6.50;99.90;;;;;;5091537;28;20425;-60
2022/03/16 05:49:58;;;;;;;32.78;12.68;;;6.50;99.90;;;;;;5099167;28;20096;-59
2022/03/16 05:52:25;;;;;;;47.67;16.85;;;6.50;99.90;;;;;;5106485;28;20070;-59
2022/03/16 05:54:54;;;;;;;52.90;18.45;;;6.50;99.90;;;;;;5094045;28;20128;-59
2022/03/16 05:57:22;;;;;;;39.38;17.75;;;6.60;99.90;;;;;;5093681;28;20044;-59
2022/03/16 05:59:49;;;;;;;45.50;16.63;;;6.50;99.90;;;;;;5094485;28;20585;-59
2022/03/16 06:02:16;;;;;;;50.75;18.08;;;6.60;99.90;;;;;;5093367;28;20048;-59
2022/03/16 06:04:44;;;;;;;42.10;18.55;;;6.60;99.90;;;;;;5090780;28;20055;-59
2022/03/16 06:07:11;;;;;;;43.47;17.13;;;6.50;99.90;;;;;;5099887;28;20465;-59
2022/03/16 06:09:38;;;;;;;;;;;6.60;99.90;;;;;;5095204;28;20052;-59
2022/03/16 06:12:08;;;;;;;36.67;15.80;;;6.60;99.90;;;;;;5091100;28;19920;-59
2022/03/16 06:14:35;;;;;;;40.88;16.98;;;6.60;99.90;;;;;;5091283;28;20102;-59
2022/03/16 06:17:03;;;;;;;43.72;18.20;;;6.60;99.90;;;;;;5099650;28;20036;-59
2022/03/16 06:19:30;;;;;;;34.30;16.63;;;6.70;99.90;;;;;;5090913;28;20036;-58
2022/03/16 06:21:56;;;;;;;37.53;17.75;;;6.70;99.90;;;;;;5089781;28;20036;-59
2022/03/16 06:24:23;;;;;;;46.58;19.02;;;6.80;99.90;;;;;;5091466;28;20079;-58
2022/03/16 06:26:51;;;;;;;40.88;19.20;;;6.90;99.90;;;;;;5099165;28;20075;-59
2022/03/16 06:29:18;;;;;;;53.63;20.70;;;6.90;99.90;;;;;;5092536;28;20134;-59
2022/03/16 06:31:45;;;;;;;51.40;21.65;;;7.10;99.90;;;;;;5094841;28;20036;-59
2022/03/16 06:34:12;;;;;;;58.95;23.45;;;7.10;99.90;;;;;;5098704;28;20036;-59
2022/03/16 06:36:40;;;;;;;46.13;22.38;;;7.20;99.90;;;;;;5103107;28;20038;-59
2022/03/16 06:39:07;;;;;;;46.30;21.35;;;7.30;99.90;;;;;;5094303;28;20044;-58
2022/03/16 06:41:34;;;;;;;51.25;22.55;;;7.30;99.90;;;;;;5094466;28;20068;-58
2022/03/16 06:44:02;;;;;;;55.55;22.67;;;7.30;99.90;;;;;;5094902;28;20048;-59
2022/03/16 06:46:29;;;;;;;46.38;21.42;;;7.30;99.90;;;;;;5102828;28;20040;-58
2022/03/16 06:48:56;;;;;;;52.05;23.23;;;7.30;99.90;;;;;;5094196;28;20048;-59
2022/03/16 06:51:22;;;;;;;46.65;21.27;;;7.30;99.90;;;;;;5094546;28;20508;-58
2022/03/16 06:53:50;;;;;;;53.63;23.17;;;7.30;99.90;;;;;;5095484;28;20044;-58
2022/03/16 06:56:16;;;;;;;57.05;25.98;;;7.30;99.90;;;;;;5101623;28;20036;-58
2022/03/16 06:58:43;;;;;;;45.03;21.33;;;7.30;99.90;;;;;;5093757;28;20046;-59
2022/03/16 07:01:10;;;;;;;48.03;21.10;;;7.30;99.90;;;;;;5093118;28;20040;-58
2022/03/16 07:03:38;;;;;;;49.28;21.67;;;7.30;99.90;;;;;;5099999;28;20044;-58
2022/03/16 07:06:05;;;;;;;48.95;21.45;;;7.30;99.90;;;;;;5102799;28;20338;-58
2022/03/16 07:08:32;;;;;;;37.00;19.40;;;7.30;99.90;;;;;;5094053;28;20036;-59
2022/03/16 07:10:59;;;;;;;35.77;17.57;;;7.30;99.90;;;;;;5096970;28;20048;-59
2022/03/16 07:13:26;;;;;;;37.20;17.20;;;7.30;99.90;;;;;;5099803;28;20302;-59
2022/03/16 07:15:53;;;;;;;21.98;11.32;;;7.30;99.90;;;;;;5093961;28;20509;-58
2022/03/16 07:18:21;;;;;;;21.10;10.40;;;7.20;99.90;;;;;;5096772;28;20036;-58
2022/03/16 07:20:48;;;;;;;22.92;9.30;;;7.10;99.90;;;;;;5101720;28;20118;-58
2022/03/16 07:23:17;;;;;;;20.23;9.63;;;7.00;99.90;;;;;;5093978;28;20040;-59
2022/03/16 07:25:47;;;;;;;23.73;9.10;;;6.90;99.90;;;;;;5093655;28;20076;-58
2022/03/16 07:28:15;;;;;;;21.55;8.93;;;6.80;99.90;;;;;;5098298;28;20032;-58
2022/03/16 07:30:43;;;;;;;17.02;8.45;;;6.80;99.90;;;;;;5101713;28;20066;-58
2022/03/16 07:33:11;;;;;;;17.55;8.75;;;6.70;99.90;;;;;;5093739;28;20044;-58
2022/03/16 07:35:38;;;;;;;14.40;7.68;;;6.60;99.90;;;;;;5101106;28;20094;-57
2022/03/16 07:38:06;;;;;;;16.67;8.00;;;6.60;99.90;;;;;;5102369;28;20413;-58
2022/03/16 07:40:35;;;;;;;12.00;6.53;;;6.50;99.90;;;;;;5092181;28;20044;-58
2022/03/16 07:43:04;;;;;;;11.30;6.75;;;6.50;99.90;;;;;;5093354;28;20044;-58
2022/03/16 07:45:31;;;;;;;11.57;5.88;;;6.50;99.90;;;;;;5100061;28;20046;-58
2022/03/16 07:47:58;;;;;;;12.07;6.18;;;6.50;99.90;;;;;;5094712;28;20040;-58
2022/03/16 07:50:26;;;;;;;13.10;6.88;;;6.50;99.90;;;;;;5092613;28;20054;-58
2022/03/16 07:52:53;;;;;;;19.55;7.80;;;6.40;99.90;;;;;;5093557;28;20044;-58
2022/03/16 07:55:20;;;;;;;;;;;6.50;99.90;;;;;;5102275;28;20396;-58
2022/03/16 07:57:47;;;;;;;13.70;6.15;;;6.50;99.90;;;;;;5093052;28;19923;-58
2022/03/16 08:00:15;;;;;;;10.18;5.47;;;6.50;99.90;;;;;;5092636;28;20044;-58
2022/03/16 08:02:43;;;;;;;14.80;7.20;;;6.50;99.90;;;;;;5093533;28;20497;-58
2022/03/16 08:05:11;;;;;;;22.27;8.50;;;6.40;99.90;;;;;;5092830;28;20086;-58
2022/03/16 08:07:39;;;;;;;18.38;8.20;;;6.30;99.90;;;;;;5092794;28;20093;-58
2022/03/16 08:10:06;;;;;;;15.38;7.13;;;6.30;99.90;;;;;;5100880;28;20459;-58
2022/03/16 08:12:34;;;;;;;16.42;7.78;;;6.30;99.90;;;;;;5101290;28;20564;-58
2022/03/16 08:15:01;;;;;;;18.58;9.30;;;6.30;99.90;;;;;;5092731;28;20035;-58
2022/03/16 08:17:28;;;;;;;17.40;8.07;;;6.30;99.90;;;;;;5092773;28;20202;-58
2022/03/16 08:19:55;;;;;;;17.85;8.55;;;6.20;99.90;;;;;;5095268;28;20040;-58
2022/03/16 08:22:33;;;;;;;23.73;9.30;;;6.20;99.90;;;;;;5099069;28;20083;-58
2022/03/16 08:25:02;;;;;;;17.75;8.82;;;6.10;99.90;;;;;;5092631;28;20052;-58
2022/03/16 08:27:30;;;;;;;23.27;10.05;;;6.10;99.90;;;;;;5092871;28;20044;-58
2022/03/16 08:29:57;;;;;;;19.73;8.52;;;6.10;99.90;;;;;;5100550;28;20068;-58
2022/03/16 08:32:24;;;;;;;21.58;10.00;;;6.10;99.90;;;;;;5092459;28;20124;-58
2022/03/16 08:34:52;;;;;;;21.98;10.90;;;6.00;99.90;;;;;;5092265;28;20073;-58
2022/03/16 08:37:20;;;;;;;28.13;12.35;;;6.00;99.90;;;;;;5098240;28;20063;-58
2022/03/16 08:39:48;;;;;;;28.77;12.45;;;6.00;99.90;;;;;;5100452;28;20048;-58
2022/03/16 08:42:16;;;;;;;28.88;13.38;;;5.90;99.90;;;;;;5092628;28;20397;-58
2022/03/16 08:44:45;;;;;;;34.72;14.88;;;5.90;99.90;;;;;;5092172;28;20085;-58
2022/03/16 08:47:16;;;;;;;29.20;13.45;;;6.00;99.90;;;;;;5099850;28;20523;-58
2022/03/16 08:49:50;;;;;;;34.60;14.93;;;6.00;99.90;;;;;;5100058;28;20052;-58
2022/03/16 08:52:17;;;;;;;30.63;13.27;;;6.00;99.90;;;;;;5092101;28;20059;-58
2022/03/16 08:54:44;;;;;;;;;;;6.00;99.90;;;;;;5095237;28;20101;-58
2022/03/16 08:57:11;;;;;;;30.88;13.93;;;6.00;99.90;;;;;;5092024;28;19958;-58
2022/03/16 08:59:39;;;;;;;30.23;13.60;;;5.90;99.90;;;;;;5091510;28;20052;-58
2022/03/16 09:02:06;;;;;;;30.75;14.77;;;5.90;99.90;;;;;;5091900;28;20040;-58
2022/03/16 09:04:34;;;;;;;30.52;13.73;;;5.90;99.90;;;;;;5100622;28;20036;-58
2022/03/16 09:07:04;;;;;;;;;;;5.90;99.90;;;;;;5100855;28;20093;-58
2022/03/16 09:09:38;;;;;;;35.15;15.02;;;5.90;99.90;;;;;;5091395;28;19959;-58
2022/03/16 09:12:06;;;;;;;30.45;14.13;;;5.90;99.90;;;;;;5091888;28;20058;-58
2022/03/16 09:14:32;;;;;;;36.45;16.15;;;5.90;99.90;;;;;;5103172;28;20096;-58
2022/03/16 09:17:00;;;;;;;38.92;17.02;;;5.90;99.90;;;;;;5092903;28;20069;-58
2022/03/16 09:19:28;;;;;;;42.85;17.10;;;5.90;99.90;;;;;;5091397;28;20040;-58
2022/03/16 09:21:54;;;;;;;37.83;18.02;;;5.90;99.90;;;;;;5093437;28;20463;-58
2022/03/16 09:24:24;;;;;;;44.08;19.35;;;5.90;99.90;;;;;;5103259;28;20040;-58
2022/03/16 09:26:51;;;;;;;42.35;18.25;;;5.90;99.90;;;;;;5093938;28;20044;-58
2022/03/16 09:29:18;;;;;;;43.50;18.60;;;5.90;99.90;;;;;;5091102;28;20047;-58
2022/03/16 09:31:45;;;;;;;47.78;20.05;;;6.00;99.90;;;;;;5099656;28;20112;-58
2022/03/16 09:34:12;;;;;;;41.95;18.63;;;6.00;99.90;;;;;;5099902;28;20077;-58
2022/03/16 09:36:42;;;;;;;43.22;18.63;;;6.00;99.90;;;;;;5091498;28;20077;-58
2022/03/16 09:39:10;;;;;;;41.33;17.50;;;6.00;99.90;;;;;;5091423;28;20048;-58
2022/03/16 09:41:37;;;;;;;39.50;18.48;;;6.10;99.90;;;;;;5103015;28;20552;-58
2022/03/16 09:44:06;;;;;;;44.83;19.45;;;6.10;99.90;;;;;;5092176;28;20040;-58
2022/03/16 09:46:35;;;;;;;43.50;20.08;;;6.10;99.90;;;;;;5091443;28;20040;-58
2022/03/16 09:49:08;;;;;;;45.38;20.25;;;6.00;99.90;;;;;;5091578;28;20404;-58
2022/03/16 09:51:36;;;;;;;46.30;18.88;;;6.00;99.90;;;;;;5098133;28;20538;-58
2022/03/16 09:54:04;;;;;;;43.50;19.33;;;6.00;99.90;;;;;;5092135;28;20040;-58
2022/03/16 09:56:32;;;;;;;43.90;18.55;;;6.10;99.90;;;;;;5091112;28;20364;-58
2022/03/16 09:58:59;;;;;;;39.95;18.17;;;6.10;99.90;;;;;;5091456;28;20119;-58
2022/03/16 10:01:26;;;;;;;37.33;17.67;;;6.20;99.90;;;;;;5097060;28;20032;-58
2022/03/16 10:03:59;;;;;;;43.53;18.42;;;6.20;99.90;;;;;;5094414;28;20075;-57
2022/03/16 10:06:26;;;;;;;36.95;17.20;;;6.30;99.90;;;;;;5095447;28;20066;-58
2022/03/16 10:14:24;;;;;;;33.72;15.65;;;6.50;99.90;;;;;;5095074;28;20494;-58
2022/03/16 10:19:52;;;;;;;33.08;14.65;;;6.60;99.90;;;;;;5100600;28;20036;-59
2022/03/16 10:22:28;;;;;;;38.35;16.45;;;6.60;99.90;;;;;;5101904;28;20093;-60
2022/03/16 10:25:03;;;;;;;35.45;15.57;;;6.50;99.90;;;;;;5094976;28;20048;-59
2022/03/16 10:27:36;;;;;;;36.72;16.63;;;6.50;99.90;;;;;;5094896;28;20458;-59
2022/03/16 10:30:10;;;;;;;32.38;16.75;;;6.60;99.90;;;;;;5103837;28;20048;-59
2022/03/16 10:32:52;;;;;;;35.45;17.00;;;6.50;99.90;;;;;;5094702;28;20048;-60
2022/03/16 10:35:19;;;;;;;33.10;15.85;;;6.50;99.90;;;;;;5095047;28;20044;-59
2022/03/16 10:37:49;;;;;;;30.30;15.50;;;6.60;99.90;;;;;;5101759;28;20052;-59
2022/03/16 10:40:20;;;;;;;29.30;13.73;;;6.60;99.90;;;;;;5101579;28;20047;-60
2022/03/16 10:48:20;;;;;;;30.42;14.18;;;6.70;99.90;;;;;;5094399;28;20056;-60
2022/03/16 10:53:41;;;;;;;24.95;12.55;;;6.80;99.90;;;;;;5091872;28;20108;-53
2022/03/16 10:56:08;;;;;;;27.40;12.70;;;6.80;99.90;;;;;;5093693;28;20554;-53
2022/03/16 10:58:36;;;;;;;21.83;11.88;;;6.80;99.90;;;;;;5094177;28;20036;-55
2022/03/16 11:01:03;;;;;;;23.00;11.63;;;6.90;99.90;;;;;;5093960;28;20129;-52
2022/03/16 11:03:32;;;;;;;24.70;12.52;;;6.90;99.90;;;;;;5076545;28;20115;-51
2022/03/16 11:05:59;;;;;;;25.40;12.15;;;6.90;99.90;;;;;;5073975;28;20094;-54
2022/03/16 11:08:26;;;;;;;25.50;12.80;;;6.90;99.90;;;;;;5073867;28;20044;-52
2022/03/16 11:10:53;;;;;;;25.67;12.88;;;6.80;99.90;;;;;;5072818;28;20393;-53
2022/03/16 11:13:31;;;;;;;30.35;14.48;;;6.90;99.90;;;;;;5073801;28;20036;-51
2022/03/16 11:16:00;;;;;;;27.90;14.00;;;6.90;99.90;;;;;;5072276;28;20044;-52
2022/03/16 11:18:28;;;;;;;27.27;13.27;;;6.90;99.90;;;;;;5073768;28;20421;-54
2022/03/16 11:21:01;;;;;;;29.33;15.13;;;7.10;99.90;;;;;;5072493;28;20040;-52
2022/03/16 11:26:29;;;;;;;26.65;14.48;;;7.30;99.90;;;;;;5073552;28;20072;-51
2022/03/16 11:29:36;;;;;;;28.23;15.02;;;7.40;99.90;;;;;;5073445;28;20459;-52
2022/03/16 11:32:14;;;;;;;27.42;13.77;;;7.60;99.90;;;;;;5072407;28;20040;-53
2022/03/16 11:34:53;;;;;;;28.08;13.98;;;7.70;99.90;;;;;;5073351;28;20094;-52
2022/03/16 11:37:33;;;;;;;23.10;12.57;;;7.80;99.90;;;;;;5073297;28;20041;-52
2022/03/16 11:40:22;;;;;;;26.35;12.98;;;7.90;99.90;;;;;;5072095;28;20401;-53
2022/03/16 11:43:04;;;;;;;28.50;12.65;;;8.00;99.90;;;;;;5073309;28;20036;-55
2022/03/16 11:45:37;;;;;;;23.85;11.82;;;8.10;99.90;;;;;;5073043;28;20102;-56
2022/03/16 11:48:32;;;;;;;24.05;12.68;;;8.10;99.90;;;;;;5072455;28;20413;-53
2022/03/16 11:51:08;;;;;;;17.58;10.43;;;8.20;99.90;;;;;;5072460;28;20102;-54
2022/03/16 11:53:47;;;;;;;18.65;10.65;;;8.40;99.90;;;;;;5072987;28;20040;-53
2022/03/16 11:56:20;;;;;;;19.17;10.20;;;8.70;99.90;;;;;;5072142;28;20075;-53
2022/03/16 11:58:55;;;;;;;17.20;8.98;;;8.90;99.90;;;;;;5072346;28;20048;-50
2022/03/16 12:01:37;;;;;;;20.35;11.00;;;9.00;99.90;;;;;;5072810;28;20068;-54
2022/03/16 12:04:12;;;;;;;17.80;10.38;;;9.20;99.90;;;;;;5073176;28;20044;-52
2022/03/16 12:07:04;;;;;;;22.15;12.32;;;9.30;99.90;;;;;;5072122;28;20098;-52
2022/03/16 12:09:31;;;;;;;18.48;10.32;;;9.40;99.90;;;;;;5066905;28;20251;-50
2022/03/16 12:15:11;;;;;;;19.38;10.75;;;9.40;99.90;;;;;;5071876;28;20309;-52
2022/03/16 12:17:55;;;;;;;14.50;8.77;;;9.20;99.90;;;;;;5071947;28;20032;-54
2022/03/16 12:20:22;;;;;;;18.13;9.82;;;9.20;99.90;;;;;;5072327;28;20098;-51
2022/03/16 12:22:51;;;;;;;14.73;9.05;;;9.20;99.90;;;;;;5072330;28;20090;-50
2022/03/16 12:25:27;;;;;;;17.83;9.23;;;9.30;99.90;;;;;;5071701;28;20066;-50
2022/03/16 12:30:50;;;;;;;20.17;11.35;;;9.40;99.90;;;;;;5071825;28;20045;-50
2022/03/16 12:33:22;;;;;;;20.25;11.02;;;9.40;99.90;;;;;;5071676;28;20044;-53
2022/03/16 12:36:00;;;;;;;17.02;10.32;;;9.40;99.90;;;;;;5072013;28;20397;-53
2022/03/16 12:38:29;;;;;;;21.10;11.52;;;9.20;99.90;;;;;;5071660;28;20083;-51
2022/03/16 12:43:53;;;;;;;19.92;11.70;;;9.10;99.90;;;;;;5071382;28;20033;-51
2022/03/16 12:46:29;;;;;;;23.42;12.02;;;9.10;99.90;;;;;;5071737;28;20058;-54
2022/03/16 12:49:03;;;;;;;22.85;11.82;;;9.10;99.90;;;;;;5071557;28;20055;-52
2022/03/16 12:51:32;;;;;;;19.50;11.23;;;9.00;99.90;;;;;;5071165;28;20132;-52
2022/03/16 12:53:59;;;;;;;20.42;10.82;;;9.00;99.90;;;;;;5071637;28;20098;-54
2022/03/16 12:56:26;;;;;;;22.20;11.40;;;9.00;99.90;;;;;;5071905;28;20405;-52
2022/03/16 12:58:54;;;;;;;24.55;12.20;;;9.00;99.90;;;;;;5053243;28;20068;-50
2022/03/16 13:01:22;;;;;;;22.45;11.38;;;9.00;99.90;;;;;;5070854;28;20078;-54
2022/03/16 13:04:07;;;;;;;21.83;11.70;;;9.00;99.90;;;;;;5071482;28;20404;-51
2022/03/16 13:06:35;;;;;;;23.38;12.45;;;9.10;99.90;;;;;;5071780;28;20047;-49
2022/03/16 13:09:06;;;;;;;21.48;11.70;;;9.10;99.90;;;;;;5070494;28;20087;-54
2022/03/16 13:11:34;;;;;;;21.13;12.65;;;9.00;99.90;;;;;;5071431;28;20055;-53
2022/03/16 13:14:16;;;;;;;24.83;13.00;;;9.10;99.90;;;;;;5071556;28;20040;-51
2022/03/16 13:16:47;;;;;;;23.55;12.20;;;9.10;99.90;;;;;;5071484;28;20400;-56